Time;durP1;ratioP1;P1;durP2;ratioP2;P2;SDS_P1;SDS_P2;PMS_P1;PMS_P2;Temp;Humidity;BMP_temperature;BMP_pressure;BME280_temperature;BME280_humidity;BME280_pressure;Samples;Min_cycle;Max_cycle;Signal;HPM_P1;HPM_P2
2021/09/29 00:00:07;;;;;;;;;;;;;;;;;;5020239;28;19918;-71
2021/09/29 00:02:39;;;;;;;;;;;;;;;;;;5018380;28;20271;-71
2021/09/29 00:05:04;;;;;;;;;;;;;;;;;;5008629;28;19917;-72
2021/09/29 00:07:29;;;;;;;;;;;;;;;;;;5018319;28;20527;-72
2021/09/29 00:09:54;;;;;;;;;;;;;;;;;;5020660;28;20337;-72
2021/09/29 00:12:21;;;;;;;;;;;;;;;;;;4989052;28;19940;-71
2021/09/29 00:14:46;;;;;;;;;;;;;;;;;;5016888;28;19917;-71
2021/09/29 00:17:11;;;;;;;;;;;;;;;;;;5018305;28;19924;-71
2021/09/29 00:19:37;;;;;;;;;;;;;;;;;;4991484;28;19921;-72
2021/09/29 00:22:02;;;;;;;;;;;;;;;;;;5019261;28;19921;-73
2021/09/29 00:24:27;;;;;;;;;;;;;;;;;;5016288;28;19917;-72
2021/09/29 00:26:52;;;;;;;;;;;;;;;;;;5016019;28;20028;-72
2021/09/29 00:29:18;;;;;;;;;;;;;;;;;;5006088;28;20009;-71
2021/09/29 00:31:43;;;;;;;;;;;;;;;;;;5006172;28;19921;-72
2021/09/29 00:34:12;;;;;;;;;;;;;;;;;;5016893;28;20370;-71
2021/09/29 00:36:38;;;;;;;;;;;;;;;;;;5017243;28;19917;-71
2021/09/29 00:39:03;;;;;;;;;;;;;;;;;;5005912;28;19917;-71
2021/09/29 00:41:28;;;;;;;;;;;;;;;;;;5006374;28;20022;-71
2021/09/29 00:43:53;;;;;;;;;;;;;;;;;;5019443;28;19924;-72
2021/09/29 00:46:18;;;;;;;;;;;;;;;;;;5017527;28;19917;-72
2021/09/29 00:48:44;;;;;;;;;;;;;;;;;;5015580;28;19917;-72
2021/09/29 00:51:10;;;;;;;;;;;;;;;;;;5018836;28;19964;-71
2021/09/29 00:53:35;;;;;;;;;;;;;;;;;;5016230;28;19928;-71
2021/09/29 00:56:00;;;;;;;;;;;;;;;;;;5020316;28;19917;-72
2021/09/29 00:58:28;;;;;;;;;;;;;;;;;;5018678;28;19917;-73
2021/09/29 01:00:53;;;;;;;;;;;;;;;;;;5018443;28;19917;-72
2021/09/29 01:03:18;;;;;;;;;;;;;;;;;;5020835;28;19921;-72
2021/09/29 01:05:44;;;;;;;;;;;;;;;;;;5018742;28;19920;-72
2021/09/29 01:08:11;;;;;;;;;;;;;;;;;;5017043;28;19917;-72
2021/09/29 01:10:36;;;;;;;;;;;;;;;;;;5015734;28;19913;-72
2021/09/29 01:13:02;;;;;;;;;;;;;;;;;;5018877;28;20263;-72
2021/09/29 01:15:27;;;;;;;;;;;;;;;;;;5017465;28;20582;-72
2021/09/29 01:17:52;;;;;;;;;;;;;;;;;;5019925;28;19921;-72
2021/09/29 01:20:17;;;;;;;;;;;;;;;;;;5004947;28;20035;-71
2021/09/29 01:22:43;;;;;;;;;;;;;;;;;;5019214;28;19917;-72
2021/09/29 01:25:08;;;;;;;;;;;;;;;;;;5019382;28;20182;-72
2021/09/29 01:27:33;;;;;;;;;;;;;;;;;;5017696;28;19917;-72
2021/09/29 01:29:58;;;;;;;;;;;;;;;;;;5020144;28;19913;-72
2021/09/29 01:32:23;;;;;;;;;;;;;;;;;;5018002;28;20097;-71
2021/09/29 01:34:49;;;;;;;;;;;;;;;;;;5015390;28;20359;-71
2021/09/29 01:37:14;;;;;;;;;;;;;;;;;;5015516;28;19917;-71
2021/09/29 01:39:39;;;;;;;;;;;;;;;;;;5014945;28;19945;-72
2021/09/29 01:42:04;;;;;;;;;;;;;;;;;;5013107;28;19937;-72
2021/09/29 01:44:32;;;;;;;;;;;;;;;;;;5016005;28;20421;-72
2021/09/29 01:46:57;;;;;;;;;;;;;;;;;;5004987;28;19921;-72
2021/09/29 01:49:22;;;;;;;;;;;;;;;;;;5017152;28;20368;-71
2021/09/29 01:51:47;;;;;;;;;;;;;;;;;;5016224;28;19925;-71
2021/09/29 01:54:12;;;;;;;;;;;;;;;;;;5016838;28;19918;-71
2021/09/29 01:56:38;;;;;;;;;;;;;;;;;;5008391;28;19928;-72
2021/09/29 01:59:03;;;;;;;;;;;;;;;;;;4996899;28;20008;-72
2021/09/29 02:01:28;;;;;;;;;;;;;;;;;;5001417;28;19928;-71
2021/09/29 02:03:54;;;;;;;;;;;;;;;;;;5021840;28;19917;-71
2021/09/29 02:06:19;;;;;;;;;;;;;;;;;;5016534;28;20341;-72
2021/09/29 02:08:46;;;;;;;;;;;;;;;;;;5006164;28;20374;-72
2021/09/29 02:11:11;;;;;;;;;;;;;;;;;;5018951;28;19925;-72
2021/09/29 02:13:37;;;;;;;;;;;;;;;;;;5014942;28;19918;-72
2021/09/29 02:16:04;;;;;;;;;;;;;;;;;;5005390;28;20414;-72
2021/09/29 02:18:29;;;;;;;;;;;;;;;;;;4996944;28;20006;-72
2021/09/29 02:20:55;;;;;;;;;;;;;;;;;;5004827;28;20484;-72
2021/09/29 02:23:21;;;;;;;;;;;;;;;;;;5012198;28;20456;-72
2021/09/29 02:25:46;;;;;;;;;;;;;;;;;;5015402;28;19921;-71
2021/09/29 02:28:13;;;;;;;;;;;;;;;;;;5019272;28;19917;-72
2021/09/29 02:30:41;;;;;;;;;;;;;;;;;;5017582;28;20374;-72
2021/09/29 02:33:06;;;;;;;;;;;;;;;;;;5019030;28;19928;-72
2021/09/29 02:35:32;;;;;;;;;;;;;;;;;;5005890;28;19922;-72
2021/09/29 02:37:57;;;;;;;;;;;;;;;;;;5015345;28;19924;-72
2021/09/29 02:40:22;;;;;;;;;;;;;;;;;;5006807;28;19936;-72
2021/09/29 02:42:47;;;;;;;;;;;;;;;;;;5018001;28;19917;-72
2021/09/29 02:45:13;;;;;;;;;;;;;;;;;;5021192;28;19918;-72
2021/09/29 02:47:38;;;;;;;;;;;;;;;;;;5014458;28;19920;-71
2021/09/29 02:50:03;;;;;;;;;;;;;;;;;;5017510;28;19924;-72
2021/09/29 02:52:28;;;;;;;;;;;;;;;;;;5023256;28;19921;-73
2021/09/29 02:54:54;;;;;;;;;;;;;;;;;;5022376;28;19918;-73
2021/09/29 02:57:19;;;;;;;;;;;;;;;;;;5019811;28;19924;-72
2021/09/29 02:59:46;;;;;;;;;;;;;;;;;;5021676;28;19917;-72
2021/09/29 03:02:12;;;;;;;;;;;;;;;;;;5008245;28;20034;-72
2021/09/29 03:04:37;;;;;;;;;;;;;;;;;;5010508;28;20058;-72
2021/09/29 03:07:03;;;;;;;;;;;;;;;;;;5018316;28;19914;-72
2021/09/29 03:09:28;;;;;;;;;;;;;;;;;;5018048;28;19917;-72
2021/09/29 03:11:53;;;;;;;;;;;;;;;;;;5020147;28;19921;-72
2021/09/29 03:14:18;;;;;;;;;;;;;;;;;;5009503;28;20052;-71
2021/09/29 03:16:43;;;;;;;;;;;;;;;;;;5021443;28;19970;-72
2021/09/29 03:19:09;;;;;;;;;;;;;;;;;;5006876;28;19917;-72
2021/09/29 03:21:35;;;;;;;;;;;;;;;;;;5020874;28;19928;-72
2021/09/29 03:24:00;;;;;;;;;;;;;;;;;;5024934;28;19914;-72
2021/09/29 03:26:25;;;;;;;;;;;;;;;;;;5007090;28;19917;-72
2021/09/29 03:28:50;;;;;;;;;;;;;;;;;;5016054;28;20366;-71
2021/09/29 03:31:16;;;;;;;;;;;;;;;;;;5022449;28;19921;-72
2021/09/29 03:33:41;;;;;;;;;;;;;;;;;;5025753;28;20377;-72
2021/09/29 03:36:07;;;;;;;;;;;;;;;;;;5020745;28;20202;-72
2021/09/29 03:38:32;;;;;;;;;;;;;;;;;;5008759;28;19978;-72
2021/09/29 03:40:57;;;;;;;;;;;;;;;;;;5024719;28;20019;-72
2021/09/29 03:43:22;;;;;;;;;;;;;;;;;;5018129;28;19925;-72
2021/09/29 03:45:48;;;;;;;;;;;;;;;;;;5006982;28;20947;-72
2021/09/29 03:48:13;;;;;;;;;;;;;;;;;;5017941;28;19970;-72
2021/09/29 03:50:38;;;;;;;;;;;;;;;;;;5019454;28;19924;-72
2021/09/29 03:53:05;;;;;;;;;;;;;;;;;;5023233;28;20323;-72
2021/09/29 03:55:31;;;;;;;;;;;;;;;;;;5027192;28;20342;-72
2021/09/29 03:57:56;;;;;;;;;;;;;;;;;;5025260;28;19925;-72
2021/09/29 04:00:21;;;;;;;;;;;;;;;;;;5019474;28;19914;-72
2021/09/29 04:02:46;;;;;;;;;;;;;;;;;;4992605;28;19920;-72
2021/09/29 04:05:12;;;;;;;;;;;;;;;;;;5018074;28;19917;-72
2021/09/29 04:07:37;;;;;;;;;;;;;;;;;;5000377;28;19917;-72
2021/09/29 04:10:02;;;;;;;;;;;;;;;;;;5008116;28;20411;-72
2021/09/29 04:12:30;;;;;;;;;;;;;;;;;;5020239;28;19921;-72
2021/09/29 04:14:55;;;;;;;;;;;;;;;;;;5020179;28;19921;-72
2021/09/29 04:17:20;;;;;;;;;;;;;;;;;;5016110;28;19917;-71
2021/09/29 04:19:45;;;;;;;;;;;;;;;;;;5019578;28;19913;-72
2021/09/29 04:22:11;;;;;;;;;;;;;;;;;;5019185;28;19921;-72
2021/09/29 04:24:36;;;;;;;;;;;;;;;;;;5017667;28;19913;-72
2021/09/29 04:27:03;;;;;;;;;;;;;;;;;;5016967;28;19996;-72
2021/09/29 04:29:28;;;;;;;;;;;;;;;;;;5005763;28;19983;-72
2021/09/29 04:31:54;;;;;;;;;;;;;;;;;;5014474;28;19967;-72
2021/09/29 04:34:19;;;;;;;;;;;;;;;;;;5015060;28;19921;-72
2021/09/29 04:36:47;;;;;;;;;;;;;;;;;;5018823;28;19913;-72
2021/09/29 04:39:12;;;;;;;;;;;;;;;;;;5016279;28;19979;-72
2021/09/29 04:41:37;;;;;;;;;;;;;;;;;;5017217;28;20425;-72
2021/09/29 04:44:04;;;;;;;;;;;;;;;;;;5000259;28;19953;-73
2021/09/29 04:46:29;;;;;;;;;;;;;;;;;;5016263;28;20000;-72
2021/09/29 04:48:55;;;;;;;;;;;;;;;;;;5017128;28;19918;-72
2021/09/29 04:51:20;;;;;;;;;;;;;;;;;;5016483;28;19921;-72
2021/09/29 04:53:45;;;;;;;;;;;;;;;;;;5016652;28;19963;-72
2021/09/29 04:56:10;;;;;;;;;;;;;;;;;;5006658;28;19924;-72
2021/09/29 04:58:36;;;;;;;;;;;;;;;;;;5004636;28;19917;-72
2021/09/29 05:01:01;;;;;;;;;;;;;;;;;;5016908;28;19913;-72
2021/09/29 05:03:26;;;;;;;;;;;;;;;;;;5017573;28;19917;-72
2021/09/29 05:05:51;;;;;;;;;;;;;;;;;;5003284;28;19922;-71
2021/09/29 05:08:17;;;;;;;;;;;;;;;;;;5019574;28;20342;-70
2021/09/29 05:10:42;;;;;;;;;;;;;;;;;;5021184;28;20290;-70
2021/09/29 05:13:08;;;;;;;;;;;;;;;;;;5013200;28;19925;-70
2021/09/29 05:15:33;;;;;;;;;;;;;;;;;;4998866;28;19917;-70
2021/09/29 05:17:58;;;;;;;;;;;;;;;;;;5015602;28;19921;-71
2021/09/29 05:20:23;;;;;;;;;;;;;;;;;;5015439;28;19963;-71
2021/09/29 05:22:48;;;;;;;;;;;;;;;;;;5017588;28;19922;-70
2021/09/29 05:25:14;;;;;;;;;;;;;;;;;;5017851;28;20388;-72
2021/09/29 05:27:39;;;;;;;;;;;;;;;;;;5015772;28;19924;-69
2021/09/29 05:30:04;;;;;;;;;;;;;;;;;;5015663;28;19917;-71
2021/09/29 05:32:29;;;;;;;;;;;;;;;;;;5006212;28;19940;-71
2021/09/29 05:34:55;;;;;;;;;;;;;;;;;;5006668;28;20240;-71
2021/09/29 05:37:20;;;;;;;;;;;;;;;;;;5018805;28;19924;-71
2021/09/29 05:39:45;;;;;;;;;;;;;;;;;;5004605;28;20228;-71
2021/09/29 05:42:10;;;;;;;;;;;;;;;;;;5020673;28;20388;-71
2021/09/29 05:44:37;;;;;;;;;;;;;;;;;;5018539;28;20346;-71
2021/09/29 05:47:02;;;;;;;;;;;;;;;;;;5016733;28;19918;-71
2021/09/29 05:49:27;;;;;;;;;;;;;;;;;;5022693;28;19924;-71
2021/09/29 05:51:52;;;;;;;;;;;;;;;;;;5014653;28;19921;-71
2021/09/29 05:54:18;;;;;;;;;;;;;;;;;;5014753;28;20016;-74
2021/09/29 05:56:44;;;;;;;;;;;;;;;;;;5014127;28;19940;-70
2021/09/29 05:59:09;;;;;;;;;;;;;;;;;;5013360;28;19913;-71
2021/09/29 06:01:34;;;;;;;;;;;;;;;;;;5019604;28;19965;-71
2021/09/29 06:04:02;;;;;;;;;;;;;;;;;;5018579;28;19917;-71
2021/09/29 06:06:29;;;;;;;;;;;;;;;;;;5013306;28;20205;-69
2021/09/29 06:08:54;;;;;;;;;;;;;;;;;;5011930;28;19979;-71
2021/09/29 06:11:20;;;;;;;;;;;;;;;;;;5019381;28;19934;-71
2021/09/29 06:13:45;;;;;;;;;;;;;;;;;;5011521;28;20277;-71
2021/09/29 06:16:11;;;;;;;;;;;;;;;;;;5002923;28;19921;-70
2021/09/29 06:18:36;;;;;;;;;;;;;;;;;;5015517;28;20242;-69
2021/09/29 06:21:01;;;;;;;;;;;;;;;;;;5018038;28;20059;-70
2021/09/29 06:23:27;;;;;;;;;;;;;;;;;;5002840;28;19916;-69
2021/09/29 06:25:52;;;;;;;;;;;;;;;;;;4990116;28;20267;-69
2021/09/29 06:28:20;;;;;;;;;;;;;;;;;;5019932;28;19913;-68
2021/09/29 06:30:45;;;;;;;;;;;;;;;;;;5017983;28;19917;-71
2021/09/29 06:33:10;;;;;;;;;;;;;;;;;;5023153;28;19925;-69
2021/09/29 06:35:35;;;;;;;;;;;;;;;;;;5022643;28;19917;-69
2021/09/29 06:38:03;;;;;;;;;;;;;;;;;;5023082;28;19917;-69
2021/09/29 06:40:28;;;;;;;;;;;;;;;;;;5023552;28;20063;-70
2021/09/29 06:42:53;;;;;;;;;;;;;;;;;;5020193;28;20012;-68
2021/09/29 06:45:19;;;;;;;;;;;;;;;;;;5018574;28;20468;-69
2021/09/29 06:47:45;;;;;;;;;;;;;;;;;;4992246;28;19948;-71
2021/09/29 06:50:11;;;;;;;;;;;;;;;;;;5010188;28;19925;-70
2021/09/29 06:52:36;;;;;;;;;;;;;;;;;;5018117;28;19921;-69
2021/09/29 06:55:01;;;;;;;;;;;;;;;;;;5022361;28;19961;-69
2021/09/29 06:57:26;;;;;;;;;;;;;;;;;;5019158;28;19923;-69
2021/09/29 06:59:54;;;;;;;;;;;;;;;;;;4986980;28;19917;-67
2021/09/29 07:02:19;;;;;;;;;;;;;;;;;;4987875;28;20396;-67
2021/09/29 07:04:44;;;;;;;;;;;;;;;;;;5018883;28;19991;-68
2021/09/29 07:07:09;;;;;;;;;;;;;;;;;;5002665;28;20031;-68
2021/09/29 07:09:35;;;;;;;;;;;;;;;;;;5018764;28;19928;-67
2021/09/29 07:12:00;;;;;;;;;;;;;;;;;;5022533;28;19925;-68
2021/09/29 07:14:25;;;;;;;;;;;;;;;;;;5017940;28;20135;-68
2021/09/29 07:16:52;;;;;;;;;;;;;;;;;;5018308;28;19917;-67
2021/09/29 07:19:17;;;;;;;;;;;;;;;;;;5015337;28;19918;-68
2021/09/29 07:21:42;;;;;;;;;;;;;;;;;;5002817;28;19917;-67
2021/09/29 07:24:07;;;;;;;;;;;;;;;;;;5017209;28;19917;-67
2021/09/29 07:26:35;;;;;;;;;;;;;;;;;;5000927;28;19983;-67
2021/09/29 07:29:01;;;;;;;;;;;;;;;;;;5017561;28;19924;-67
2021/09/29 07:31:27;;;;;;;;;;;;;;;;;;5016742;28;19921;-67
2021/09/29 07:33:53;;;;;;;;;;;;;;;;;;5015676;28;20039;-67
2021/09/29 07:36:18;;;;;;;;;;;;;;;;;;5019915;28;20047;-67
2021/09/29 07:38:43;;;;;;;;;;;;;;;;;;5014892;28;20265;-67
2021/09/29 07:41:08;;;;;;;;;;;;;;;;;;5017695;28;19921;-67
2021/09/29 07:43:33;;;;;;;;;;;;;;;;;;5013479;28;19924;-67
2021/09/29 07:45:59;;;;;;;;;;;;;;;;;;5013241;28;19921;-68
2021/09/29 07:48:24;;;;;;;;;;;;;;;;;;5018652;28;20366;-69
2021/09/29 07:50:49;;;;;;;;;;;;;;;;;;5015825;28;19917;-68
2021/09/29 07:53:17;;;;;;;;;;;;;;;;;;5018030;28;19941;-67
2021/09/29 07:55:42;;;;;;;;;;;;;;;;;;5013941;28;20374;-68
2021/09/29 07:58:07;;;;;;;;;;;;;;;;;;5005949;28;19917;-67
2021/09/29 08:00:32;;;;;;;;;;;;;;;;;;4987174;28;20223;-67
2021/09/29 08:02:58;;;;;;;;;;;;;;;;;;5015783;28;19928;-67
2021/09/29 08:05:23;;;;;;;;;;;;;;;;;;5016029;28;19981;-68
2021/09/29 08:07:48;;;;;;;;;;;;;;;;;;5013622;28;20401;-70
2021/09/29 08:10:14;;;;;;;;;;;;;;;;;;5016665;28;19992;-68
2021/09/29 08:12:39;;;;;;;;;;;;;;;;;;5016957;28;20023;-69
2021/09/29 08:15:11;;;;;;;;;;;;;;;;;;5016812;28;20392;-70
2021/09/29 08:17:36;;;;;;;;;;;;;;;;;;5016115;28;20429;-70
2021/09/29 08:20:02;;;;;;;;;;;;;;;;;;5004698;28;20401;-69
2021/09/29 08:22:27;;;;;;;;;;;;;;;;;;5015529;28;19975;-69
2021/09/29 08:27:44;;;;;;;;;;;;;;;;;;5016386;28;19921;-68
2021/09/29 08:37:39;;;;;;;;;;;;;;;;;;5016196;28;19971;-68
2021/09/29 08:40:18;;;;;;;;;;;;;;;;;;5014159;28;19999;-68
2021/09/29 08:42:57;;;;;;;;;;;;;;;;;;5013825;28;20432;-68
2021/09/29 08:48:03;;;;;;;;;;;;;;;;;;5018961;28;20429;-68
2021/09/29 08:51:18;;;;;;;;;;;;;;;;;;5013335;28;20369;-68
2021/09/29 09:15:21;;;;;;;;;;;;;;;;;;5014318;28;20323;-68
2021/09/29 09:17:45;;;;;;;;;;;;;;;;;;5012904;28;19918;-69
2021/09/29 09:20:10;;;;;;;;;;;;;;;;;;5015340;28;19917;-68
2021/09/29 09:22:35;;;;;;;;;;;;;;;;;;5014213;28;20302;-68
2021/09/29 09:25:00;;;;;;;;;;;;;;;;;;5014725;28;20289;-68
2021/09/29 09:27:26;;;;;;;;;;;;;;;;;;5011897;28;19959;-67
2021/09/29 09:29:51;;;;;;;;;;;;;;;;;;5011291;28;19945;-68
2021/09/29 09:32:16;;;;;;;;;;;;;;;;;;5003115;28;20492;-67
2021/09/29 09:34:44;;;;;;;;;;;;;;;;;;5013246;28;20267;-70
2021/09/29 09:37:09;;;;;;;;;;;;;;;;;;5013312;28;20071;-67
2021/09/29 09:39:37;;;;;;;;;;;;;;;;;;5018551;28;20221;-69
2021/09/29 09:42:02;;;;;;;;;;;;;;;;;;5013185;28;19963;-67
2021/09/29 09:44:29;;;;;;;;;;;;;;;;;;5013861;28;19992;-67
2021/09/29 09:46:57;;;;;;;;;;;;;;;;;;5012584;28;19917;-68
2021/09/29 09:49:23;;;;;;;;;;;;;;;;;;5014811;28;20402;-67
2021/09/29 09:51:48;;;;;;;;;;;;;;;;;;4985048;28;19964;-68
2021/09/29 09:54:13;;;;;;;;;;;;;;;;;;5015546;28;19925;-67
2021/09/29 09:56:42;;;;;;;;;;;;;;;;;;5015814;28;20032;-68
2021/09/29 09:59:07;;;;;;;;;;;;;;;;;;5014021;28;20317;-67
2021/09/29 10:01:32;;;;;;;;;;;;;;;;;;4999783;28;19974;-69
2021/09/29 10:03:57;;;;;;;;;;;;;;;;;;5011037;28;20274;-68
2021/09/29 10:06:24;;;;;;;;;;;;;;;;;;5012307;28;20141;-68
2021/09/29 10:09:12;;;;;;;;;;;;;;;;;;5012529;28;20003;-68
2021/09/29 10:15:27;;;;;;;;;;;;;;;;;;4999078;28;19921;-68
2021/09/29 10:28:02;;;;;;;;;;;;;;;;;;5013732;28;20373;-68
2021/09/29 10:30:29;;;;;;;;;;;;;;;;;;5011941;28;20051;-67
2021/09/29 10:32:58;;;;;;;;;;;;;;;;;;5010877;28;19925;-68
2021/09/29 10:43:12;;;;;;;;;;;;;;;;;;5013414;28;19923;-67
2021/09/29 10:45:45;;;;;;;;;;;;;;;;;;5011444;28;19921;-67
2021/09/29 10:51:56;;;;;;;;;;;;;;;;;;4987267;28;19924;-70
2021/09/29 11:29:20;;;;;;;;;;;;;;;;;;5010732;28;19917;-70
2021/09/29 11:31:56;;;;;;;;;;;;;;;;;;5009781;28;19921;-70
2021/09/29 11:34:25;;;;;;;;;;;;;;;;;;5016268;28;20019;-70
2021/09/29 12:12:14;;;;;;;;;;;;;;;;;;5019132;28;20319;-68
2021/09/29 12:14:39;;;;;;;;;;;;;;;;;;5020446;28;19921;-68
2021/09/29 12:17:04;;;;;;;;;;;;;;;;;;5018155;28;19920;-68
2021/09/29 12:19:35;;;;;;;;;;;;;;;;;;5015473;28;19921;-68
2021/09/29 12:22:05;;;;;;;;;;;;;;;;;;5020085;28;19917;-68
2021/09/29 12:24:32;;;;;;;;;;;;;;;;;;5019273;28;19921;-69
2021/09/29 12:27:00;;;;;;;;;;;;;;;;;;5018416;28;19918;-68
2021/09/29 12:30:11;;;;;;;;;;;;;;;;;;5007700;28;19949;-69
2021/09/29 12:32:43;;;;;;;;;;;;;;;;;;5007937;28;19934;-68
2021/09/29 12:35:05;;;;;;;;;;;;;;;;;;5020728;28;19921;-69
2021/09/29 12:37:30;;;;;;;;;;;;;;;;;;5018247;28;20000;-68
2021/09/29 12:39:56;;;;;;;;;;;;;;;;;;5017782;28;20342;-69
2021/09/29 12:42:21;;;;;;;;;;;;;;;;;;5015950;28;19925;-69
2021/09/29 12:44:46;;;;;;;;;;;;;;;;;;5020373;28;19990;-69
2021/09/29 12:47:21;;;;;;;;;;;;;;;;;;5020511;28;20442;-70
2021/09/29 12:49:46;;;;;;;;;;;;;;;;;;5016662;28;20381;-69
2021/09/29 12:52:12;;;;;;;;;;;;;;;;;;5023753;28;19924;-69
2021/09/29 12:54:39;;;;;;;;;;;;;;;;;;5018838;28;19928;-70
2021/09/29 12:57:04;;;;;;;;;;;;;;;;;;5012672;28;19917;-70
2021/09/29 12:59:29;;;;;;;;;;;;;;;;;;5013729;28;19956;-69
2021/09/29 13:01:55;;;;;;;;;;;;;;;;;;5017293;28;20023;-71
2021/09/29 13:04:22;;;;;;;;;;;;;;;;;;5023306;28;19963;-70
2021/09/29 13:06:47;;;;;;;;;;;;;;;;;;5015372;28;19948;-70
2021/09/29 13:09:12;;;;;;;;;;;;;;;;;;5021228;28;19920;-70
2021/09/29 13:11:40;;;;;;;;;;;;;;;;;;5020078;28;19925;-71
2021/09/29 13:14:05;;;;;;;;;;;;;;;;;;5019404;28;19921;-70
2021/09/29 13:16:32;;;;;;;;;;;;;;;;;;5006850;28;19940;-68
2021/09/29 13:19:01;;;;;;;;;;;;;;;;;;5016468;28;19940;-67
2021/09/29 13:24:03;;;;;;;;;;;;;;;;;;4998001;28;20028;-67
2021/09/29 13:37:05;;;;;;;;;;;;;;;;;;5017865;28;20246;-67
2021/09/29 13:39:30;;;;;;;;;;;;;;;;;;5018713;28;20177;-67
2021/09/29 13:41:56;;;;;;;;;;;;;;;;;;5004312;28;19917;-67
2021/09/29 13:44:22;;;;;;;;;;;;;;;;;;5001876;28;19941;-67
2021/09/29 13:46:47;;;;;;;;;;;;;;;;;;5004378;28;19920;-66
2021/09/29 13:49:12;;;;;;;;;;;;;;;;;;5003850;28;20322;-67
2021/09/29 13:51:38;;;;;;;;;;;;;;;;;;5015163;28;20290;-66
2021/09/29 13:54:37;;;;;;;;;;;;;;;;;;5014688;28;20370;-67
2021/09/29 13:59:35;;;;;;;;;;;;;;;;;;5016171;28;19971;-66
2021/09/29 14:29:14;;;;;;;;;;;;;;;;;;5004120;28;20066;-68
2021/09/29 14:31:48;;;;;;;;;;;;;;;;;;5014155;28;19928;-68
2021/09/29 14:34:14;;;;;;;;;;;;;;;;;;5015078;28;19925;-68
2021/09/29 14:36:39;;;;;;;;;;;;;;;;;;5015586;28;19944;-68
2021/09/29 14:39:05;;;;;;;;;;;;;;;;;;5015068;28;20404;-68
2021/09/29 14:41:30;;;;;;;;;;;;;;;;;;5004588;28;20303;-67
2021/09/29 14:43:55;;;;;;;;;;;;;;;;;;5016073;28;20022;-68
2021/09/29 14:46:20;;;;;;;;;;;;;;;;;;5002851;28;19929;-68
2021/09/29 14:48:48;;;;;;;;;;;;;;;;;;5006969;28;20401;-68
2021/09/29 14:51:16;;;;;;;;;;;;;;;;;;5018729;28;19917;-67
2021/09/29 14:53:41;;;;;;;;;;;;;;;;;;5016614;28;20330;-67
2021/09/29 14:56:06;;;;;;;;;;;;;;;;;;5017696;28;20402;-68
2021/09/29 14:58:32;;;;;;;;;;;;;;;;;;5018522;28;19983;-68
2021/09/29 15:00:57;;;;;;;;;;;;;;;;;;5020979;28;19917;-67
2021/09/29 15:03:23;;;;;;;;;;;;;;;;;;5007045;28;20418;-67
2021/09/29 15:05:48;;;;;;;;;;;;;;;;;;5017638;28;20040;-68
2021/09/29 15:08:13;;;;;;;;;;;;;;;;;;5018171;28;20031;-67
2021/09/29 15:10:39;;;;;;;;;;;;;;;;;;5020391;28;19920;-70
2021/09/29 15:13:06;;;;;;;;;;;;;;;;;;5018100;28;19972;-68
2021/09/29 15:15:33;;;;;;;;;;;;;;;;;;5019814;28;20043;-67
2021/09/29 15:18:11;;;;;;;;;;;;;;;;;;5019801;28;20434;-67
2021/09/29 15:47:16;;;;;;;;;;;;;;;;;;5017728;28;19917;-68
2021/09/29 15:52:46;;;;;;;;;;;;;;;;;;5020106;28;19998;-68
2021/09/29 15:55:21;;;;;;;;;;;;;;;;;;5015706;28;19940;-68
2021/09/29 16:03:10;;;;;;;;;;;;;;;;;;5019063;28;19921;-68
2021/09/29 16:05:50;;;;;;;;;;;;;;;;;;5019091;28;19967;-68
2021/09/29 16:32:23;;;;;;;;;;;;;;;;;;4989101;28;19917;-70
2021/09/29 16:35:19;;;;;;;;;;;;;;;;;;5009014;28;19960;-69
2021/09/29 16:37:37;;;;;;;;;;;;;;;;;;5000034;28;19964;-70
2021/09/29 16:40:04;;;;;;;;;;;;;;;;;;5004107;28;20616;-69
2021/09/29 16:42:32;;;;;;;;;;;;;;;;;;5014978;28;19966;-70
2021/09/29 16:44:59;;;;;;;;;;;;;;;;;;5007462;28;20390;-70
2021/09/29 16:47:24;;;;;;;;;;;;;;;;;;5010454;28;20214;-70
2021/09/29 16:49:50;;;;;;;;;;;;;;;;;;5013069;28;19921;-70
2021/09/29 16:52:27;;;;;;;;;;;;;;;;;;5006166;28;19921;-70
2021/09/29 16:54:53;;;;;;;;;;;;;;;;;;5016142;28;19917;-69
2021/09/29 16:57:26;;;;;;;;;;;;;;;;;;5009015;28;19924;-71
2021/09/29 17:00:08;;;;;;;;;;;;;;;;;;5007667;28;19917;-70
2021/09/29 17:02:33;;;;;;;;;;;;;;;;;;5003325;28;19921;-70
2021/09/29 17:04:59;;;;;;;;;;;;;;;;;;4997447;28;20286;-69
2021/09/29 17:07:24;;;;;;;;;;;;;;;;;;5009848;28;19924;-71
2021/09/29 17:09:49;;;;;;;;;;;;;;;;;;5000237;28;19942;-68
2021/09/29 17:12:15;;;;;;;;;;;;;;;;;;4988828;28;19925;-69
2021/09/29 17:14:41;;;;;;;;;;;;;;;;;;5019741;28;19956;-70
2021/09/29 17:17:06;;;;;;;;;;;;;;;;;;5012143;28;19921;-69
2021/09/29 17:19:31;;;;;;;;;;;;;;;;;;5011679;28;19919;-70
2021/09/29 17:21:58;;;;;;;;;;;;;;;;;;5003026;28;20319;-70
2021/09/29 17:24:23;;;;;;;;;;;;;;;;;;5005107;28;20007;-69
2021/09/29 17:26:49;;;;;;;;;;;;;;;;;;5015794;28;20004;-70
2021/09/29 17:29:16;;;;;;;;;;;;;;;;;;5008683;28;19959;-71
2021/09/29 17:34:15;;;;;;;;;;;;;;;;;;5015577;28;19921;-69
2021/09/29 17:52:39;;;;;;;;;;;;;;;;;;5003799;28;19925;-69
2021/09/29 17:55:04;;;;;;;;;;;;;;;;;;5014338;28;19917;-69
2021/09/29 17:57:29;;;;;;;;;;;;;;;;;;5014361;28;19917;-69
2021/09/29 17:59:57;;;;;;;;;;;;;;;;;;5012782;28;20148;-70
2021/09/29 18:02:32;;;;;;;;;;;;;;;;;;5008754;28;20314;-69
2021/09/29 18:05:05;;;;;;;;;;;;;;;;;;5009176;28;19924;-70
2021/09/29 18:07:40;;;;;;;;;;;;;;;;;;5013947;28;20025;-69
2021/09/29 18:10:06;;;;;;;;;;;;;;;;;;5006796;28;20100;-70
2021/09/29 18:12:31;;;;;;;;;;;;;;;;;;4996239;28;20282;-71
2021/09/29 18:14:56;;;;;;;;;;;;;;;;;;5019015;28;19918;-70
2021/09/29 18:17:21;;;;;;;;;;;;;;;;;;5007622;28;19917;-69
2021/09/29 18:19:48;;;;;;;;;;;;;;;;;;5014233;28;19917;-69
2021/09/29 18:22:14;;;;;;;;;;;;;;;;;;5009949;28;19925;-69
2021/09/29 18:24:41;;;;;;;;;;;;;;;;;;5011606;28;19952;-68
2021/09/29 18:27:06;;;;;;;;;;;;;;;;;;5018741;28;19940;-69
2021/09/29 18:29:31;;;;;;;;;;;;;;;;;;5012303;28;19917;-70
2021/09/29 18:31:57;;;;;;;;;;;;;;;;;;5018911;28;20413;-69
2021/09/29 18:34:25;;;;;;;;;;;;;;;;;;5002419;28;19921;-69
2021/09/29 18:36:50;;;;;;;;;;;;;;;;;;5013701;28;20020;-69
2021/09/29 18:39:20;;;;;;;;;;;;;;;;;;5017931;28;20059;-69
2021/09/29 18:41:45;;;;;;;;;;;;;;;;;;5014294;28;19917;-68
2021/09/29 18:44:13;;;;;;;;;;;;;;;;;;5018974;28;20016;-69
2021/09/29 18:46:38;;;;;;;;;;;;;;;;;;5016174;28;19928;-69
2021/09/29 18:49:05;;;;;;;;;;;;;;;;;;5012030;28;19913;-69
2021/09/29 18:51:30;;;;;;;;;;;;;;;;;;5018986;28;20448;-68
2021/09/29 18:56:47;;;;;;;;;;;;;;;;;;5009107;28;20472;-69
2021/09/29 19:07:17;;;;;;;;;;;;;;;;;;5010971;28;19918;-68
2021/09/29 19:09:42;;;;;;;;;;;;;;;;;;5013492;28;19944;-68
2021/09/29 19:12:09;;;;;;;;;;;;;;;;;;5020310;28;20289;-68
2021/09/29 19:14:37;;;;;;;;;;;;;;;;;;5003828;28;20281;-68
2021/09/29 19:17:02;;;;;;;;;;;;;;;;;;5014868;28;19917;-68
2021/09/29 19:19:27;;;;;;;;;;;;;;;;;;5008165;28;19917;-68
2021/09/29 19:21:52;;;;;;;;;;;;;;;;;;5000929;28;19918;-68
2021/09/29 19:24:17;;;;;;;;;;;;;;;;;;5007097;28;19924;-67
2021/09/29 19:26:43;;;;;;;;;;;;;;;;;;5011800;28;19944;-67
2021/09/29 19:29:08;;;;;;;;;;;;;;;;;;5013497;28;19945;-67
2021/09/29 19:31:33;;;;;;;;;;;;;;;;;;4997305;28;19918;-67
2021/09/29 19:34:00;;;;;;;;;;;;;;;;;;5012024;28;19971;-68
2021/09/29 19:36:25;;;;;;;;;;;;;;;;;;5021051;28;19917;-67
2021/09/29 19:38:50;;;;;;;;;;;;;;;;;;5011908;28;20118;-70
2021/09/29 19:41:16;;;;;;;;;;;;;;;;;;5007945;28;19917;-69
2021/09/29 19:43:45;;;;;;;;;;;;;;;;;;5018481;28;19921;-70
2021/09/29 19:46:17;;;;;;;;;;;;;;;;;;5012539;28;19959;-70
2021/09/29 20:07:38;;;;;;;;;;;;;;;;;;5019364;28;19956;-66
2021/09/29 20:10:03;;;;;;;;;;;;;;;;;;4998987;28;19957;-66
2021/09/29 20:12:28;;;;;;;;;;;;;;;;;;5015297;28;20348;-66
2021/09/29 20:14:54;;;;;;;;;;;;;;;;;;5012388;28;20358;-66
2021/09/29 20:17:19;;;;;;;;;;;;;;;;;;4998822;28;20375;-66
2021/09/29 20:19:44;;;;;;;;;;;;;;;;;;5004226;28;19999;-66
2021/09/29 20:22:10;;;;;;;;;;;;;;;;;;5016177;28;19924;-67
2021/09/29 20:24:36;;;;;;;;;;;;;;;;;;5018013;28;19917;-66
2021/09/29 20:27:01;;;;;;;;;;;;;;;;;;5018649;28;19964;-66
2021/09/29 20:29:26;;;;;;;;;;;;;;;;;;5016867;28;20374;-66
2021/09/29 20:31:52;;;;;;;;;;;;;;;;;;5007192;28;20381;-66
2021/09/29 20:43:06;;;;;;;;;;;;;;;;;;5015728;28;20011;-65
2021/09/29 20:45:10;;;;;;;;;;;;;;;;;;5010740;28;19917;-65
2021/09/29 20:47:35;;;;;;;;;;;;;;;;;;5023812;28;19918;-65
2021/09/29 20:50:00;;;;;;;;;;;;;;;;;;5017698;28;19914;-65
2021/09/29 20:52:26;;;;;;;;;;;;;;;;;;5004348;28;19921;-67
2021/09/29 20:54:51;;;;;;;;;;;;;;;;;;5018123;28;19925;-67
2021/09/29 20:57:17;;;;;;;;;;;;;;;;;;5017257;28;19917;-66
2021/09/29 20:59:42;;;;;;;;;;;;;;;;;;5017963;28;19925;-67
2021/09/29 21:02:07;;;;;;;;;;;;;;;;;;5014014;28;20375;-66
2021/09/29 21:04:35;;;;;;;;;;;;;;;;;;5005107;28;20184;-66
2021/09/29 21:07:00;;;;;;;;;;;;;;;;;;5018243;28;19971;-66
2021/09/29 21:09:26;;;;;;;;;;;;;;;;;;5016313;28;19921;-66
2021/09/29 21:12:11;;;;;;;;;;;;;;;;;;5014956;28;20727;-67
2021/09/29 21:20:00;;;;;;;;;;;;;;;;;;5016571;28;19984;-66
2021/09/29 21:22:26;;;;;;;;;;;;;;;;;;5005978;28;20374;-66
2021/09/29 21:24:51;;;;;;;;;;;;;;;;;;5016738;28;19921;-67
2021/09/29 21:27:16;;;;;;;;;;;;;;;;;;5017766;28;20392;-67
2021/09/29 21:29:42;;;;;;;;;;;;;;;;;;5016556;28;20329;-67
2021/09/29 21:32:07;;;;;;;;;;;;;;;;;;5006362;28;19936;-66
2021/09/29 21:34:36;;;;;;;;;;;;;;;;;;5008446;28;20008;-67